Time;durP1;ratioP1;P1;durP2;ratioP2;P2;SDS_P1;SDS_P2;PMS_P1;PMS_P2;Temp;Humidity;BMP_temperature;BMP_pressure;BME280_temperature;BME280_humidity;BME280_pressure;Samples;Min_cycle;Max_cycle;Signal;HPM_P1;HPM_P2
2022/11/22 00:01:18;;;;;;;14.80;12.50;;;;;;;;;;108798;1255;22512;-29
2022/11/22 00:03:50;;;;;;;14.30;12.60;;;;;;;;;;108757;1263;22567;-32
2022/11/22 00:06:22;;;;;;;14.70;12.70;;;;;;;;;;108846;1262;22549;-31
2022/11/22 00:08:54;;;;;;;14.30;12.80;;;;;;;;;;108831;1262;22624;-32
2022/11/22 00:11:26;;;;;;;13.40;12.00;;;;;;;;;;108893;1262;22714;-32
2022/11/22 00:13:58;;;;;;;14.00;12.50;;;;;;;;;;108844;1262;25398;-32
2022/11/22 00:16:30;;;;;;;15.70;12.90;;;;;;;;;;108875;1262;25390;-32
2022/11/22 00:19:02;;;;;;;14.00;11.90;;;;;;;;;;108811;1263;22712;-32
2022/11/22 00:21:34;;;;;;;13.80;12.20;;;;;;;;;;108803;1263;22710;-32
2022/11/22 00:24:08;;;;;;;14.60;12.90;;;;;;;;;;108811;1263;25417;-31
2022/11/22 00:26:38;;;;;;;;;;;;;;;;;;108872;1262;22586;-32
2022/11/22 00:29:12;;;;;;;15.00;12.30;;;;;;;;;;108851;1262;22524;-32
2022/11/22 00:31:45;;;;;;;14.90;12.20;;;;;;;;;;108884;1256;22603;-32
2022/11/22 00:34:17;;;;;;;14.30;12.20;;;;;;;;;;108891;1260;22623;-32
2022/11/22 00:36:49;;;;;;;14.50;12.20;;;;;;;;;;108839;1262;22531;-31
2022/11/22 00:39:21;;;;;;;13.60;11.80;;;;;;;;;;108805;1262;23020;-32
2022/11/22 00:41:53;;;;;;;14.70;12.30;;;;;;;;;;108805;1263;22576;-32
2022/11/22 00:44:25;;;;;;;14.30;11.70;;;;;;;;;;108813;1256;24838;-32
2022/11/22 00:46:57;;;;;;;14.30;12.20;;;;;;;;;;108816;1264;23688;-31
2022/11/22 00:49:30;;;;;;;13.90;11.60;;;;;;;;;;108683;1263;25205;-32
2022/11/22 00:52:02;;;;;;;13.80;11.30;;;;;;;;;;108869;1256;22532;-31
2022/11/22 00:54:34;;;;;;;14.70;11.60;;;;;;;;;;108851;1262;25460;-32
2022/11/22 00:57:06;;;;;;;13.70;11.70;;;;;;;;;;108864;1257;22537;-32
2022/11/22 00:59:38;;;;;;;13.40;11.60;;;;;;;;;;108785;1262;22563;-32
2022/11/22 01:02:10;;;;;;;13.40;11.90;;;;;;;;;;108797;1264;22545;-32
2022/11/22 01:04:42;;;;;;;12.70;11.00;;;;;;;;;;108804;1265;25411;-32
2022/11/22 01:07:15;;;;;;;13.70;11.50;;;;;;;;;;108796;1264;22641;-32
2022/11/22 01:09:46;;;;;;;;;;;;;;;;;;108822;1256;22560;-32
2022/11/22 01:12:18;;;;;;;12.90;11.00;;;;;;;;;;108840;1262;22547;-32
2022/11/22 01:14:50;;;;;;;13.40;11.40;;;;;;;;;;108870;1262;22515;-32
2022/11/22 01:17:22;;;;;;;13.60;11.30;;;;;;;;;;108830;1263;22709;-32
2022/11/22 01:19:54;;;;;;;11.80;10.50;;;;;;;;;;108771;1262;22516;-32
2022/11/22 01:22:26;;;;;;;13.50;11.30;;;;;;;;;;108780;1262;22821;-32
2022/11/22 01:24:58;;;;;;;13.90;11.50;;;;;;;;;;108813;1259;22544;-32
2022/11/22 01:27:30;;;;;;;13.80;11.40;;;;;;;;;;108745;1263;22573;-32
2022/11/22 01:30:03;;;;;;;13.10;11.40;;;;;;;;;;108792;1264;22556;-32
2022/11/22 01:32:37;;;;;;;14.30;11.30;;;;;;;;;;108855;1262;25902;-32
2022/11/22 01:35:11;;;;;;;13.40;11.20;;;;;;;;;;108866;1262;22549;-32
2022/11/22 01:37:43;;;;;;;13.70;11.40;;;;;;;;;;108836;1257;22621;-31
2022/11/22 01:40:16;;;;;;;13.60;11.20;;;;;;;;;;108786;1262;22668;-32
2022/11/22 01:42:48;;;;;;;;;;;;;;;;;;108797;1265;22736;-32
2022/11/22 01:45:46;;;;;;;13.50;11.00;;;;;;;;;;108786;1260;22637;-32
2022/11/22 01:48:46;;;;;;;14.00;11.60;;;;;;;;;;108803;1264;22537;-32
2022/11/22 01:51:26;;;;;;;13.60;11.40;;;;;;;;;;108813;1260;23902;-31
2022/11/22 01:54:03;;;;;;;13.10;11.10;;;;;;;;;;108853;1262;23848;-29
2022/11/22 01:56:36;;;;;;;13.50;11.20;;;;;;;;;;108876;1262;22485;-29
2022/11/22 01:59:18;;;;;;;12.00;10.20;;;;;;;;;;108799;1263;22554;-29
2022/11/22 02:01:51;;;;;;;13.60;11.10;;;;;;;;;;108751;1262;22584;-29
2022/11/22 02:04:25;;;;;;;12.20;10.60;;;;;;;;;;108807;1265;23748;-29
2022/11/22 02:07:03;;;;;;;12.90;10.60;;;;;;;;;;108793;1265;22543;-29
2022/11/22 02:09:37;;;;;;;12.60;10.90;;;;;;;;;;108736;1264;22547;-29
2022/11/22 02:12:11;;;;;;;12.70;10.70;;;;;;;;;;108902;1262;22523;-29
2022/11/22 02:14:44;;;;;;;11.10;9.70;;;;;;;;;;108871;1256;23712;-29
2022/11/22 02:17:15;;;;;;;;;;;;;;;;;;108853;1257;22524;-29
2022/11/22 02:19:49;;;;;;;13.30;10.90;;;;;;;;;;108850;1262;22479;-29
2022/11/22 02:22:36;;;;;;;12.40;10.60;;;;;;;;;;108742;1263;22597;-29
2022/11/22 02:25:18;;;;;;;13.10;10.70;;;;;;;;;;108718;1265;25397;-29
2022/11/22 02:27:50;;;;;;;13.20;11.20;;;;;;;;;;108693;1263;22507;-29
2022/11/22 02:30:22;;;;;;;12.70;11.10;;;;;;;;;;108718;1263;22556;-29
2022/11/22 02:32:55;;;;;;;13.90;11.30;;;;;;;;;;108812;1262;22517;-29
2022/11/22 02:35:29;;;;;;;12.80;10.60;;;;;;;;;;108862;1260;24007;-29
2022/11/22 02:38:04;;;;;;;13.70;11.00;;;;;;;;;;108621;1262;22593;-29
2022/11/22 02:40:42;;;;;;;12.60;10.90;;;;;;;;;;108789;1262;23833;-29
2022/11/22 02:43:18;;;;;;;13.60;11.00;;;;;;;;;;108741;1265;22599;-29
2022/11/22 02:45:51;;;;;;;13.60;11.00;;;;;;;;;;108764;1263;22503;-29
2022/11/22 02:48:23;;;;;;;12.10;10.30;;;;;;;;;;108723;1264;22618;-29
2022/11/22 02:50:56;;;;;;;13.20;11.20;;;;;;;;;;108737;1263;22669;-29
2022/11/22 02:53:31;;;;;;;12.90;10.60;;;;;;;;;;108842;1262;22545;-29
2022/11/22 02:56:03;;;;;;;13.20;11.00;;;;;;;;;;108829;1262;22623;-29
2022/11/22 02:58:35;;;;;;;13.40;10.90;;;;;;;;;;108837;1256;22523;-29
2022/11/22 03:01:08;;;;;;;12.40;10.30;;;;;;;;;;108788;1262;22528;-29
2022/11/22 03:03:41;;;;;;;13.70;10.80;;;;;;;;;;108773;1264;22593;-29
2022/11/22 03:06:13;;;;;;;12.20;10.30;;;;;;;;;;108765;1263;22541;-29
2022/11/22 03:08:47;;;;;;;13.90;11.60;;;;;;;;;;108801;1256;22541;-29
2022/11/22 03:11:19;;;;;;;12.90;11.00;;;;;;;;;;108756;1263;25928;-29
2022/11/22 03:13:54;;;;;;;12.40;10.40;;;;;;;;;;108883;1262;22604;-29
2022/11/22 03:16:26;;;;;;;13.40;10.70;;;;;;;;;;108862;1256;25276;-29
2022/11/22 03:18:59;;;;;;;12.50;10.50;;;;;;;;;;108898;1256;22616;-29
2022/11/22 03:21:31;;;;;;;12.90;11.10;;;;;;;;;;108837;1262;22607;-29
2022/11/22 03:24:03;;;;;;;14.30;11.10;;;;;;;;;;108815;1264;23845;-29
2022/11/22 03:26:35;;;;;;;12.80;10.70;;;;;;;;;;108774;1264;22529;-29
2022/11/22 03:29:08;;;;;;;12.80;10.40;;;;;;;;;;108785;1263;25406;-29
2022/11/22 03:31:40;;;;;;;12.40;10.60;;;;;;;;;;108783;1262;22984;-29
2022/11/22 03:34:14;;;;;;;13.40;10.80;;;;;;;;;;108889;1262;22493;-29
2022/11/22 03:36:46;;;;;;;13.10;10.60;;;;;;;;;;108909;1262;22532;-29
2022/11/22 03:39:18;;;;;;;13.20;10.50;;;;;;;;;;108875;1263;22551;-29
2022/11/22 03:41:51;;;;;;;13.30;10.30;;;;;;;;;;108837;1255;25443;-29
2022/11/22 03:44:23;;;;;;;12.80;10.70;;;;;;;;;;108752;1264;22555;-29
2022/11/22 03:46:55;;;;;;;13.30;10.70;;;;;;;;;;108795;1264;23836;-30
2022/11/22 03:49:27;;;;;;;12.30;10.40;;;;;;;;;;108778;1264;22495;-29
2022/11/22 03:51:59;;;;;;;14.80;11.00;;;;;;;;;;108771;1263;22507;-29
2022/11/22 03:54:31;;;;;;;14.40;11.00;;;;;;;;;;108853;1262;22550;-29
2022/11/22 03:57:03;;;;;;;13.40;10.60;;;;;;;;;;108887;1256;22490;-29
2022/11/22 03:59:35;;;;;;;13.80;10.70;;;;;;;;;;108907;1262;22596;-29
2022/11/22 04:02:08;;;;;;;13.90;10.90;;;;;;;;;;108828;1262;22570;-29
2022/11/22 04:04:40;;;;;;;13.30;10.60;;;;;;;;;;108785;1263;22555;-29
2022/11/22 04:07:12;;;;;;;14.20;11.30;;;;;;;;;;108770;1265;22636;-29
2022/11/22 04:09:44;;;;;;;13.10;10.70;;;;;;;;;;108797;1259;25719;-29
2022/11/22 04:12:16;;;;;;;13.10;10.00;;;;;;;;;;108742;1263;23828;-29
2022/11/22 04:15:06;;;;;;;13.00;10.50;;;;;;;;;;108875;1262;22594;-29
2022/11/22 04:17:40;;;;;;;13.60;10.50;;;;;;;;;;108880;1262;22623;-29
2022/11/22 04:23:09;;;;;;;13.50;10.60;;;;;;;;;;108787;1262;22521;-29
2022/11/22 04:25:44;;;;;;;14.80;10.80;;;;;;;;;;108799;1253;22623;-29
2022/11/22 04:28:19;;;;;;;13.20;10.80;;;;;;;;;;108791;1263;22695;-29
2022/11/22 04:33:42;;;;;;;13.80;11.40;;;;;;;;;;108818;1256;22982;-29
2022/11/22 04:36:14;;;;;;;13.70;11.30;;;;;;;;;;108903;1261;22548;-29
2022/11/22 04:38:46;;;;;;;14.50;11.00;;;;;;;;;;108871;1263;22495;-29
2022/11/22 04:41:18;;;;;;;13.70;10.90;;;;;;;;;;108873;1256;22527;-29
2022/11/22 04:46:40;;;;;;;14.20;11.30;;;;;;;;;;108759;1265;23996;-29
2022/11/22 04:49:12;;;;;;;14.00;11.30;;;;;;;;;;108748;1259;23731;-29
2022/11/22 04:54:34;;;;;;;14.70;11.50;;;;;;;;;;108843;1255;22552;-29
2022/11/22 04:57:06;;;;;;;15.00;11.70;;;;;;;;;;108877;1260;22552;-29
2022/11/22 04:59:38;;;;;;;14.40;11.40;;;;;;;;;;108915;1262;22538;-29
2022/11/22 05:02:10;;;;;;;15.80;11.80;;;;;;;;;;108919;1262;22598;-29
2022/11/22 05:04:42;;;;;;;;;;;;;;;;;;108782;1262;22528;-29
2022/11/22 05:07:14;;;;;;;16.20;11.40;;;;;;;;;;108765;1262;25272;-29
2022/11/22 05:09:46;;;;;;;14.50;11.40;;;;;;;;;;108767;1256;22507;-29
2022/11/22 05:12:18;;;;;;;13.80;11.20;;;;;;;;;;108753;1263;22524;-29
2022/11/22 05:14:50;;;;;;;14.60;11.50;;;;;;;;;;108823;1262;22717;-29
2022/11/22 05:17:22;;;;;;;14.90;11.50;;;;;;;;;;108899;1256;22492;-29
2022/11/22 05:19:54;;;;;;;15.60;11.80;;;;;;;;;;108882;1262;24307;-29
2022/11/22 05:25:15;;;;;;;16.00;11.90;;;;;;;;;;108736;1260;24318;-29
2022/11/22 05:27:47;;;;;;;14.60;11.40;;;;;;;;;;108758;1263;22626;-29
2022/11/22 05:30:20;;;;;;;16.70;12.30;;;;;;;;;;108756;1262;22588;-29
2022/11/22 05:32:52;;;;;;;;;;;;;;;;;;108794;1264;22526;-29
2022/11/22 05:35:24;;;;;;;14.20;11.40;;;;;;;;;;108800;1258;25408;-29
2022/11/22 05:37:58;;;;;;;14.40;11.40;;;;;;;;;;108821;1262;22536;-29
2022/11/22 05:40:31;;;;;;;15.70;12.00;;;;;;;;;;108819;1263;22527;-29
2022/11/22 05:43:03;;;;;;;15.70;11.90;;;;;;;;;;108848;1262;22540;-29
2022/11/22 05:45:36;;;;;;;15.50;11.70;;;;;;;;;;108767;1262;22490;-29
2022/11/22 05:48:08;;;;;;;14.20;11.70;;;;;;;;;;108762;1264;22523;-29
2022/11/22 05:50:40;;;;;;;15.00;11.80;;;;;;;;;;108769;1262;24314;-29
2022/11/22 05:53:12;;;;;;;14.40;11.50;;;;;;;;;;108737;1263;22558;-29
2022/11/22 05:55:44;;;;;;;15.00;11.90;;;;;;;;;;108771;1262;25927;-29
2022/11/22 05:58:16;;;;;;;15.10;11.70;;;;;;;;;;108711;1266;25238;-29
2022/11/22 06:00:48;;;;;;;14.70;11.90;;;;;;;;;;108867;1262;22541;-29
2022/11/22 06:03:22;;;;;;;16.00;12.00;;;;;;;;;;108871;1262;22760;-29
2022/11/22 06:05:55;;;;;;;16.50;12.40;;;;;;;;;;108767;1262;23889;-29
2022/11/22 06:08:30;;;;;;;16.40;12.70;;;;;;;;;;108712;1264;25265;-29
2022/11/22 06:11:08;;;;;;;16.10;12.10;;;;;;;;;;108738;1263;22569;-29
2022/11/22 06:13:43;;;;;;;16.00;11.70;;;;;;;;;;108755;1259;22889;-29
2022/11/22 06:16:16;;;;;;;15.50;12.00;;;;;;;;;;108724;1262;25431;-29
2022/11/22 06:18:48;;;;;;;16.60;12.50;;;;;;;;;;108900;1262;22691;-29
2022/11/22 06:21:23;;;;;;;15.70;11.80;;;;;;;;;;108852;1262;25404;-29
2022/11/22 06:23:56;;;;;;;17.50;11.70;;;;;;;;;;108869;1263;22544;-29
2022/11/22 06:26:27;;;;;;;;;;;;;;;;;;108731;1263;22545;-29
2022/11/22 06:28:59;;;;;;;15.40;11.80;;;;;;;;;;108747;1262;25436;-29
2022/11/22 06:31:31;;;;;;;18.70;12.10;;;;;;;;;;108753;1263;25408;-29
2022/11/22 06:34:04;;;;;;;15.50;12.00;;;;;;;;;;108745;1261;22477;-29
2022/11/22 06:36:39;;;;;;;16.70;11.60;;;;;;;;;;108805;1262;23983;-29
2022/11/22 06:39:11;;;;;;;17.30;12.00;;;;;;;;;;108875;1262;23801;-29
2022/11/22 06:41:43;;;;;;;18.00;12.50;;;;;;;;;;108865;1262;24196;-29
2022/11/22 06:44:17;;;;;;;15.60;11.90;;;;;;;;;;108860;1262;25391;-29
2022/11/22 06:46:49;;;;;;;18.20;13.20;;;;;;;;;;108721;1263;24369;-32
2022/11/22 06:49:21;;;;;;;17.30;12.90;;;;;;;;;;108364;1255;436801;-32
2022/11/22 06:51:53;;;;;;;16.90;12.80;;;;;;;;;;108628;1264;22513;-32
2022/11/22 06:54:25;;;;;;;17.20;12.90;;;;;;;;;;108655;1264;22611;-32
2022/11/22 06:56:57;;;;;;;16.70;12.30;;;;;;;;;;108588;1262;22814;-32
2022/11/22 06:59:29;;;;;;;18.30;12.80;;;;;;;;;;108627;1265;22601;-32
2022/11/22 07:02:01;;;;;;;18.10;12.90;;;;;;;;;;108615;1265;22564;-32
2022/11/22 07:04:33;;;;;;;18.60;12.90;;;;;;;;;;108631;1263;22887;-32
2022/11/22 07:07:05;;;;;;;16.30;12.50;;;;;;;;;;108690;1262;23800;-32
2022/11/22 07:09:38;;;;;;;16.90;13.40;;;;;;;;;;108840;1257;25411;-31
2022/11/22 07:12:11;;;;;;;16.80;12.50;;;;;;;;;;108814;1262;22602;-31
2022/11/22 07:14:43;;;;;;;16.30;13.00;;;;;;;;;;108844;1262;22569;-32
2022/11/22 07:17:15;;;;;;;18.00;12.70;;;;;;;;;;108677;1263;22554;-32
2022/11/22 07:19:47;;;;;;;17.20;12.90;;;;;;;;;;108720;1265;23100;-31
2022/11/22 07:22:19;;;;;;;17.00;12.90;;;;;;;;;;108696;1263;22569;-32
2022/11/22 07:24:51;;;;;;;16.70;12.20;;;;;;;;;;108665;1264;22494;-32
2022/11/22 07:27:23;;;;;;;17.90;13.40;;;;;;;;;;108708;1262;22826;-32
2022/11/22 07:29:55;;;;;;;18.10;13.50;;;;;;;;;;108733;1262;22563;-32
2022/11/22 07:32:27;;;;;;;16.40;12.50;;;;;;;;;;108706;1262;22715;-32
2022/11/22 07:34:58;;;;;;;17.10;12.90;;;;;;;;;;108816;1262;22533;-29
2022/11/22 07:37:32;;;;;;;17.20;12.70;;;;;;;;;;108726;1263;22609;-29
2022/11/22 07:40:06;;;;;;;16.20;13.00;;;;;;;;;;108765;1264;22602;-30
2022/11/22 07:42:38;;;;;;;17.10;12.50;;;;;;;;;;108796;1263;22551;-30
2022/11/22 07:45:12;;;;;;;18.80;13.80;;;;;;;;;;108749;1264;22664;-30
2022/11/22 07:47:44;;;;;;;17.50;12.70;;;;;;;;;;108806;1259;25883;-30
2022/11/22 07:50:16;;;;;;;17.30;12.60;;;;;;;;;;108856;1262;22711;-33
2022/11/22 07:52:48;;;;;;;17.20;12.70;;;;;;;;;;108869;1262;25487;-32
2022/11/22 07:55:20;;;;;;;17.00;13.20;;;;;;;;;;108872;1261;22535;-33
2022/11/22 07:57:52;;;;;;;19.40;13.70;;;;;;;;;;108790;1264;23985;-32
2022/11/22 08:00:25;;;;;;;16.50;12.60;;;;;;;;;;108781;1265;22584;-32
2022/11/22 08:02:59;;;;;;;17.90;13.20;;;;;;;;;;108781;1258;22564;-33
2022/11/22 08:05:33;;;;;;;17.70;13.50;;;;;;;;;;108817;1262;24039;-33
2022/11/22 08:08:06;;;;;;;19.60;12.80;;;;;;;;;;108831;1263;23865;-33
2022/11/22 08:10:38;;;;;;;17.80;13.10;;;;;;;;;;108924;1258;22524;-32
2022/11/22 08:13:11;;;;;;;17.70;13.20;;;;;;;;;;108916;1263;22605;-33
2022/11/22 08:15:44;;;;;;;18.30;13.50;;;;;;;;;;108900;1263;22539;-30
2022/11/22 08:18:17;;;;;;;18.80;13.50;;;;;;;;;;108782;1264;25258;-30
2022/11/22 08:20:48;;;;;;;;;;;;;;;;;;108856;1268;22543;-30
2022/11/22 08:23:20;;;;;;;19.60;13.30;;;;;;;;;;108815;1264;22615;-29
2022/11/22 08:25:53;;;;;;;17.40;13.40;;;;;;;;;;108780;1265;22543;-30
2022/11/22 08:28:25;;;;;;;19.60;13.40;;;;;;;;;;108798;1263;22815;-30
2022/11/22 08:31:04;;;;;;;18.30;13.50;;;;;;;;;;108924;1262;22559;-30
2022/11/22 08:33:37;;;;;;;16.90;12.60;;;;;;;;;;108877;1262;22534;-30
2022/11/22 08:36:11;;;;;;;19.20;13.40;;;;;;;;;;108878;1263;22547;-30
2022/11/22 08:38:44;;;;;;;19.60;13.40;;;;;;;;;;108793;1263;22585;-32
2022/11/22 08:41:20;;;;;;;20.30;14.20;;;;;;;;;;108784;1264;23952;-33
2022/11/22 08:43:54;;;;;;;18.50;14.20;;;;;;;;;;108758;1263;22526;-32
2022/11/22 08:46:26;;;;;;;21.00;14.80;;;;;;;;;;108766;1265;22593;-33
2022/11/22 08:48:58;;;;;;;19.80;14.70;;;;;;;;;;108872;1263;22525;-32
2022/11/22 08:51:31;;;;;;;18.90;14.40;;;;;;;;;;108872;1262;22501;-32
2022/11/22 08:54:03;;;;;;;20.70;14.50;;;;;;;;;;108860;1264;25491;-30
2022/11/22 08:56:35;;;;;;;19.80;14.60;;;;;;;;;;108843;1262;22504;-29
2022/11/22 08:59:08;;;;;;;22.40;15.10;;;;;;;;;;108650;1257;22494;-29
2022/11/22 09:01:41;;;;;;;22.00;15.50;;;;;;;;;;108763;1263;22862;-29
2022/11/22 09:04:13;;;;;;;21.70;14.20;;;;;;;;;;108763;1265;22693;-29
2022/11/22 09:06:46;;;;;;;20.40;14.60;;;;;;;;;;108801;1265;22540;-29
2022/11/22 09:09:18;;;;;;;22.50;15.10;;;;;;;;;;108731;1263;22506;-30
2022/11/22 09:11:51;;;;;;;22.20;14.60;;;;;;;;;;108967;1262;25462;-29
2022/11/22 09:14:24;;;;;;;22.60;16.00;;;;;;;;;;108872;1263;22667;-28
2022/11/22 09:16:56;;;;;;;19.50;14.90;;;;;;;;;;108751;1269;25874;-29
2022/11/22 09:19:29;;;;;;;21.70;15.60;;;;;;;;;;108722;1263;24834;-29
2022/11/22 09:22:01;;;;;;;23.60;15.20;;;;;;;;;;108604;1264;22536;-29
2022/11/22 09:24:33;;;;;;;22.50;15.70;;;;;;;;;;108796;1262;23071;-31
2022/11/22 09:27:05;;;;;;;20.40;14.80;;;;;;;;;;108796;1265;22494;-32
2022/11/22 09:29:37;;;;;;;21.10;15.40;;;;;;;;;;108772;1263;23382;-31
2022/11/22 09:32:13;;;;;;;21.90;15.60;;;;;;;;;;108891;1262;22587;-30
2022/11/22 09:34:45;;;;;;;20.60;15.10;;;;;;;;;;108903;1260;23917;-30
2022/11/22 09:37:18;;;;;;;21.20;15.30;;;;;;;;;;108884;1268;23867;-29
2022/11/22 09:39:51;;;;;;;22.70;16.20;;;;;;;;;;108780;1265;22599;-29
2022/11/22 09:42:55;;;;;;;21.70;15.50;;;;;;;;;;108808;1262;22580;-29
2022/11/22 09:46:10;;;;;;;21.30;15.20;;;;;;;;;;108753;1265;22819;-28
2022/11/22 09:49:08;;;;;;;23.20;15.70;;;;;;;;;;108747;1264;22644;-29
2022/11/22 09:51:46;;;;;;;21.20;15.10;;;;;;;;;;108873;1263;24016;-29
2022/11/22 09:54:25;;;;;;;21.10;15.40;;;;;;;;;;108875;1269;22643;-29
2022/11/22 09:57:04;;;;;;;21.60;15.60;;;;;;;;;;108903;1263;22557;-29
2022/11/22 09:59:42;;;;;;;22.40;15.80;;;;;;;;;;108888;1256;22496;-29
2022/11/22 10:02:25;;;;;;;22.20;15.60;;;;;;;;;;108783;1262;25257;-29
2022/11/22 10:05:01;;;;;;;20.90;14.90;;;;;;;;;;108774;1265;22594;-29
2022/11/22 10:07:43;;;;;;;22.20;15.80;;;;;;;;;;108785;1264;22523;-29
2022/11/22 10:10:21;;;;;;;23.00;16.80;;;;;;;;;;108621;1265;22579;-30
2022/11/22 10:12:58;;;;;;;22.90;16.10;;;;;;;;;;108886;1263;23717;-29
2022/11/22 10:15:37;;;;;;;21.00;16.20;;;;;;;;;;108886;1260;23709;-29
2022/11/22 10:18:21;;;;;;;23.80;16.30;;;;;;;;;;108890;1269;22555;-30
2022/11/22 10:20:51;;;;;;;;;;;;;;;;;;108824;1268;22737;-30
2022/11/22 10:23:26;;;;;;;22.80;15.70;;;;;;;;;;108632;1259;22494;-30
2022/11/22 10:26:02;;;;;;;22.30;16.60;;;;;;;;;;108813;1267;22483;-30
2022/11/22 10:28:39;;;;;;;22.00;16.00;;;;;;;;;;108804;1268;22601;-30
2022/11/22 10:31:20;;;;;;;22.20;15.40;;;;;;;;;;108861;1259;22530;-29
2022/11/22 10:34:05;;;;;;;22.40;15.80;;;;;;;;;;108866;1269;22507;-30
2022/11/22 10:36:46;;;;;;;20.80;15.40;;;;;;;;;;108784;1263;24289;-30
2022/11/22 10:39:37;;;;;;;21.50;15.30;;;;;;;;;;108848;1264;22564;-31
2022/11/22 10:43:01;;;;;;;19.50;15.00;;;;;;;;;;108649;1268;22569;-30
2022/11/22 10:45:40;;;;;;;20.10;15.00;;;;;;;;;;108614;1267;22591;-31
2022/11/22 10:48:24;;;;;;;21.30;15.10;;;;;;;;;;108693;1264;25441;-29
2022/11/22 10:51:08;;;;;;;20.30;14.80;;;;;;;;;;108791;1252;22548;-31
2022/11/22 10:53:59;;;;;;;21.20;15.50;;;;;;;;;;108767;1268;25241;-30
2022/11/22 10:56:37;;;;;;;21.30;15.10;;;;;;;;;;108871;1262;22548;-32
2022/11/22 10:59:33;;;;;;;20.60;14.70;;;;;;;;;;108817;1263;22612;-32
2022/11/22 11:02:23;;;;;;;18.90;14.70;;;;;;;;;;108675;1256;22644;-32
2022/11/22 11:05:00;;;;;;;21.20;15.20;;;;;;;;;;108712;1261;22567;-32
2022/11/22 11:07:32;;;;;;;20.30;14.90;;;;;;;;;;108731;1263;22534;-33
2022/11/22 11:10:17;;;;;;;21.80;16.10;;;;;;;;;;108744;1262;22548;-31
2022/11/22 11:12:54;;;;;;;20.00;14.90;;;;;;;;;;108800;1265;22663;-32
2022/11/22 11:15:36;;;;;;;19.50;14.80;;;;;;;;;;108847;1267;25276;-31
2022/11/22 11:18:15;;;;;;;18.80;14.40;;;;;;;;;;108836;1262;22573;-30
2022/11/22 11:20:51;;;;;;;21.00;14.70;;;;;;;;;;108794;1264;23910;-31
2022/11/22 11:23:23;;;;;;;20.60;14.50;;;;;;;;;;108743;1264;22554;-31
2022/11/22 11:25:56;;;;;;;19.70;14.70;;;;;;;;;;108663;1264;22580;-30
2022/11/22 11:28:30;;;;;;;18.80;14.20;;;;;;;;;;108616;1269;24343;-30
2022/11/22 11:31:12;;;;;;;19.70;14.20;;;;;;;;;;108690;1261;22505;-31
2022/11/22 11:33:45;;;;;;;19.90;14.40;;;;;;;;;;108796;1269;22548;-30
2022/11/22 11:36:22;;;;;;;18.50;13.80;;;;;;;;;;108814;1263;25046;-30
2022/11/22 11:38:57;;;;;;;17.40;13.20;;;;;;;;;;108812;1268;23891;-30
2022/11/22 11:41:32;;;;;;;18.90;14.20;;;;;;;;;;108855;1266;22611;-30
2022/11/22 11:44:23;;;;;;;16.90;12.50;;;;;;;;;;108720;1271;22583;-31
2022/11/22 11:46:55;;;;;;;17.60;12.80;;;;;;;;;;108641;1269;22545;-30
2022/11/22 11:49:30;;;;;;;19.30;13.20;;;;;;;;;;108638;1264;22654;-30
2022/11/22 11:52:07;;;;;;;16.10;12.80;;;;;;;;;;108597;1269;23557;-31
2022/11/22 11:54:45;;;;;;;17.90;13.30;;;;;;;;;;108813;1263;22547;-30
2022/11/22 11:57:21;;;;;;;19.10;13.40;;;;;;;;;;108842;1264;25257;-30
2022/11/22 11:59:54;;;;;;;16.90;12.80;;;;;;;;;;108834;1262;22559;-31
2022/11/22 12:02:50;;;;;;;17.30;12.90;;;;;;;;;;108830;1268;22630;-33
2022/11/22 12:05:32;;;;;;;17.30;12.90;;;;;;;;;;108697;1268;22498;-33
2022/11/22 12:08:11;;;;;;;16.50;12.30;;;;;;;;;;108644;1266;23809;-33
2022/11/22 12:10:56;;;;;;;16.50;12.30;;;;;;;;;;108654;1262;22549;-34
2022/11/22 12:13:36;;;;;;;18.80;12.90;;;;;;;;;;108751;1262;22547;-34
2022/11/22 12:16:16;;;;;;;18.30;13.10;;;;;;;;;;108885;1268;22561;-33
2022/11/22 12:18:58;;;;;;;15.90;11.50;;;;;;;;;;108866;1264;25429;-35
2022/11/22 12:21:42;;;;;;;16.60;12.00;;;;;;;;;;108860;1266;22623;-33
2022/11/22 12:24:22;;;;;;;15.70;11.90;;;;;;;;;;108718;1267;24209;-35
2022/11/22 12:26:55;;;;;;;16.20;12.70;;;;;;;;;;108827;1256;22549;-35
2022/11/22 12:29:28;;;;;;;16.80;12.10;;;;;;;;;;108650;1266;22562;-34
2022/11/22 12:32:07;;;;;;;17.20;12.80;;;;;;;;;;108635;1268;22528;-32
2022/11/22 12:34:49;;;;;;;16.20;12.00;;;;;;;;;;108792;1269;22529;-33
2022/11/22 12:37:25;;;;;;;15.70;11.00;;;;;;;;;;108839;1268;22551;-33
2022/11/22 12:40:04;;;;;;;17.50;12.10;;;;;;;;;;108810;1267;22643;-33
2022/11/22 12:42:51;;;;;;;17.00;12.60;;;;;;;;;;108841;1264;22534;-33
2022/11/22 12:45:30;;;;;;;15.80;11.50;;;;;;;;;;108659;1267;22511;-33
2022/11/22 12:48:08;;;;;;;16.30;11.90;;;;;;;;;;108655;1269;22483;-33
2022/11/22 12:50:46;;;;;;;16.00;12.20;;;;;;;;;;108655;1263;22547;-33
2022/11/22 12:53:24;;;;;;;16.00;11.60;;;;;;;;;;108720;1265;24616;-33
2022/11/22 12:56:04;;;;;;;14.90;11.60;;;;;;;;;;108858;1269;25382;-32
2022/11/22 12:58:44;;;;;;;14.40;11.20;;;;;;;;;;108835;1262;22629;-32
2022/11/22 13:01:24;;;;;;;16.40;11.70;;;;;;;;;;108821;1263;22527;-33
2022/11/22 13:04:04;;;;;;;15.80;11.50;;;;;;;;;;108763;1268;22499;-33
2022/11/22 13:06:45;;;;;;;15.00;11.20;;;;;;;;;;108694;1261;23916;-33
2022/11/22 13:09:21;;;;;;;15.70;11.90;;;;;;;;;;108753;1256;22554;-33
2022/11/22 13:12:00;;;;;;;15.40;11.20;;;;;;;;;;108636;1269;22561;-33
2022/11/22 13:14:38;;;;;;;14.80;11.70;;;;;;;;;;108791;1261;22528;-32
2022/11/22 13:17:12;;;;;;;15.30;12.10;;;;;;;;;;108850;1269;22586;-33
2022/11/22 13:19:48;;;;;;;14.50;10.90;;;;;;;;;;108811;1263;22479;-33
2022/11/22 13:22:31;;;;;;;15.00;10.90;;;;;;;;;;108851;1265;22550;-33
2022/11/22 13:25:41;;;;;;;15.10;11.30;;;;;;;;;;108751;1261;22502;-33
2022/11/22 13:28:16;;;;;;;13.90;10.20;;;;;;;;;;108773;1267;25932;-32
2022/11/22 13:31:15;;;;;;;15.10;11.20;;;;;;;;;;108669;1264;22548;-33
2022/11/22 13:33:58;;;;;;;15.00;11.60;;;;;;;;;;108679;1260;22562;-33
2022/11/22 13:36:48;;;;;;;15.60;11.30;;;;;;;;;;108826;1267;22562;-33
2022/11/22 13:39:25;;;;;;;14.90;11.70;;;;;;;;;;108785;1267;22579;-32
2022/11/22 13:42:07;;;;;;;16.70;11.20;;;;;;;;;;108773;1263;22547;-33
2022/11/22 13:45:07;;;;;;;14.70;11.00;;;;;;;;;;108726;1262;22558;-33
2022/11/22 13:47:44;;;;;;;16.50;11.80;;;;;;;;;;108760;1260;22596;-33
2022/11/22 13:51:00;;;;;;;16.80;12.60;;;;;;;;;;108807;1261;22586;-33
2022/11/22 13:53:39;;;;;;;20.10;13.40;;;;;;;;;;108852;1262;22679;-33
2022/11/22 13:56:56;;;;;;;21.50;14.70;;;;;;;;;;108659;1267;22500;-30
2022/11/22 13:59:29;;;;;;;23.20;15.60;;;;;;;;;;108680;1266;22701;-33
2022/11/22 14:02:14;;;;;;;26.00;17.00;;;;;;;;;;108797;1262;22541;-33
2022/11/22 14:04:47;;;;;;;25.70;16.80;;;;;;;;;;108921;1267;22544;-33
2022/11/22 14:07:42;;;;;;;22.90;16.50;;;;;;;;;;109000;1267;22546;-33
2022/11/22 14:10:34;;;;;;;22.90;16.30;;;;;;;;;;108872;1264;22505;-31
2022/11/22 14:13:37;;;;;;;23.70;16.30;;;;;;;;;;108932;1260;23823;-31
2022/11/22 14:16:29;;;;;;;27.60;16.70;;;;;;;;;;108761;1268;22547;-31
2022/11/22 14:19:17;;;;;;;23.60;15.80;;;;;;;;;;108730;1256;22564;-31
2022/11/22 14:22:19;;;;;;;25.80;16.60;;;;;;;;;;108754;1263;22558;-30
2022/11/22 14:25:14;;;;;;;24.50;15.90;;;;;;;;;;108761;1262;25409;-31
2022/11/22 14:27:54;;;;;;;21.70;15.50;;;;;;;;;;109018;1263;22567;-30
2022/11/22 14:30:43;;;;;;;22.60;15.80;;;;;;;;;;108847;1268;23833;-31
2022/11/22 14:33:21;;;;;;;23.00;15.70;;;;;;;;;;108881;1266;22602;-31
2022/11/22 14:36:17;;;;;;;22.60;15.40;;;;;;;;;;108821;1263;22565;-30
2022/11/22 14:38:49;;;;;;;21.00;15.20;;;;;;;;;;108766;1262;22501;-31
2022/11/22 14:41:45;;;;;;;20.50;14.70;;;;;;;;;;108780;1256;22724;-29
2022/11/22 14:44:24;;;;;;;23.40;15.50;;;;;;;;;;108752;1265;22630;-30
2022/11/22 14:47:03;;;;;;;19.50;14.40;;;;;;;;;;108836;1259;24063;-30
2022/11/22 14:49:44;;;;;;;18.70;13.70;;;;;;;;;;108614;1264;311432;-30
2022/11/22 14:52:23;;;;;;;19.60;14.70;;;;;;;;;;108843;1263;22573;-30
2022/11/22 14:54:59;;;;;;;18.50;13.80;;;;;;;;;;108894;1262;25270;-29
2022/11/22 14:57:35;;;;;;;18.60;14.00;;;;;;;;;;108698;1266;22567;-29
2022/11/22 15:00:19;;;;;;;18.40;13.80;;;;;;;;;;108682;1264;22599;-29
2022/11/22 15:03:24;;;;;;;17.90;13.60;;;;;;;;;;108685;1264;23855;-29
2022/11/22 15:06:15;;;;;;;17.80;13.20;;;;;;;;;;108672;1265;22589;-29
2022/11/22 15:09:02;;;;;;;19.70;13.80;;;;;;;;;;108775;1266;22521;-31
2022/11/22 15:12:17;;;;;;;18.70;12.90;;;;;;;;;;108862;1263;22550;-31
2022/11/22 15:15:27;;;;;;;17.80;13.10;;;;;;;;;;108707;1266;23155;-31
2022/11/22 15:18:13;;;;;;;16.80;12.10;;;;;;;;;;108835;1263;22993;-31